Time;durP1;ratioP1;P1;durP2;ratioP2;P2;SDS_P1;SDS_P2;PMS_P1;PMS_P2;Temp;Humidity;BMP_temperature;BMP_pressure;BME280_temperature;BME280_humidity;BME280_pressure;Samples;Min_cycle;Max_cycle;Signal;HPM_P1;HPM_P2
2023/05/31 00:02:13;;;;;;;2.22;1.63;;;19.30;81.40;;;;;;7387852;19;20158;-77
2023/05/31 00:04:39;;;;;;;3.53;1.50;;;19.40;80.50;;;;;;7390554;19;20143;-77
2023/05/31 00:07:06;;;;;;;3.20;1.58;;;19.40;80.40;;;;;;7390116;19;20163;-78
2023/05/31 00:09:32;;;;;;;2.42;1.50;;;19.40;80.40;;;;;;7391294;19;20153;-77
2023/05/31 00:11:58;;;;;;;2.65;1.55;;;19.30;80.50;;;;;;7391625;19;20126;-77
2023/05/31 00:14:24;;;;;;;3.15;1.20;;;19.30;80.80;;;;;;7385786;19;20142;-77
2023/05/31 00:16:50;;;;;;;4.60;1.30;;;19.30;81.40;;;;;;7391495;19;20250;-78
2023/05/31 00:19:16;;;;;;;2.00;1.17;;;19.30;81.30;;;;;;7386406;19;20142;-78
2023/05/31 00:21:45;;;;;;;4.20;1.65;;;19.30;80.80;;;;;;7392611;19;20135;-77
2023/05/31 00:24:14;;;;;;;2.63;1.40;;;19.20;81.20;;;;;;7390269;19;20147;-77
2023/05/31 00:26:39;;;;;;;3.50;1.55;;;19.10;81.10;;;;;;7389703;19;20146;-78
2023/05/31 00:29:05;;;;;;;3.25;1.15;;;19.20;80.50;;;;;;7391406;19;20131;-77
2023/05/31 00:31:31;;;;;;;2.25;1.15;;;19.20;80.00;;;;;;7390948;19;20454;-77
2023/05/31 00:33:57;;;;;;;2.97;1.67;;;19.20;80.00;;;;;;7390063;19;20142;-77
2023/05/31 00:36:23;;;;;;;2.97;1.70;;;19.20;80.00;;;;;;7390120;19;20147;-78
2023/05/31 00:38:49;;;;;;;2.17;1.40;;;19.20;79.40;;;;;;7391254;19;20139;-77
2023/05/31 00:41:15;;;;;;;3.80;1.67;;;19.30;79.80;;;;;;7388025;19;20150;-77
2023/05/31 00:43:41;;;;;;;1.77;1.23;;;19.20;79.70;;;;;;7387057;19;20151;-77
2023/05/31 00:46:11;;;;;;;2.35;1.30;;;18.80;80.70;;;;;;7389113;19;20137;-77
2023/05/31 00:48:38;;;;;;;5.43;1.35;;;19.00;80.50;;;;;;7388173;19;20138;-76
2023/05/31 00:51:05;;;;;;;2.80;1.50;;;18.70;80.00;;;;;;7389740;19;20319;-77
2023/05/31 00:53:31;;;;;;;2.60;1.30;;;18.70;81.90;;;;;;7391182;19;20123;-76
2023/05/31 00:55:59;;;;;;;2.63;1.40;;;18.70;81.70;;;;;;7387830;19;20142;-77
2023/05/31 00:58:27;;;;;;;3.10;1.20;;;18.90;80.70;;;;;;7391074;19;20147;-77
2023/05/31 01:00:54;;;;;;;1.88;1.17;;;19.10;80.20;;;;;;7389803;19;20150;-78
2023/05/31 01:03:20;;;;;;;1.88;1.40;;;18.90;80.30;;;;;;7387858;19;20142;-78
2023/05/31 01:05:46;;;;;;;4.00;1.20;;;18.90;80.70;;;;;;7390247;19;20571;-77
2023/05/31 01:08:14;;;;;;;1.40;1.08;;;18.90;80.90;;;;;;7389330;19;20146;-77
2023/05/31 01:10:41;;;;;;;2.28;1.25;;;18.70;80.80;;;;;;7390595;19;20165;-77
2023/05/31 01:13:25;;;;;;;3.20;1.55;;;18.70;80.80;;;;;;7388589;19;20134;-77
2023/05/31 01:16:23;;;;;;;3.30;1.30;;;18.80;81.30;;;;;;7387275;19;20215;-77
2023/05/31 01:19:00;;;;;;;2.35;1.20;;;18.70;81.80;;;;;;7387583;19;20147;-77
2023/05/31 01:21:37;;;;;;;1.55;1.17;;;18.90;81.50;;;;;;7389142;19;20149;-78
2023/05/31 01:24:26;;;;;;;3.67;1.40;;;19.00;80.50;;;;;;7387894;19;20138;-77
2023/05/31 01:26:55;;;;;;;3.03;1.42;;;19.10;79.30;;;;;;7388880;19;20146;-77
2023/05/31 01:29:24;;;;;;;2.88;1.55;;;19.00;78.90;;;;;;7388677;19;20135;-77
2023/05/31 01:31:51;;;;;;;3.40;1.55;;;18.90;79.50;;;;;;7386119;19;20148;-77
2023/05/31 01:34:16;;;;;;;1.90;1.10;;;18.90;80.40;;;;;;7388059;19;20139;-77
2023/05/31 01:36:42;;;;;;;1.92;1.20;;;18.90;79.40;;;;;;7387987;19;20526;-76
2023/05/31 01:39:10;;;;;;;1.60;1.33;;;18.90;79.30;;;;;;7388740;19;20135;-77
2023/05/31 01:41:39;;;;;;;3.65;1.40;;;18.80;78.90;;;;;;7386576;19;20139;-77
2023/05/31 01:44:06;;;;;;;1.75;1.17;;;18.80;79.70;;;;;;7387384;19;20373;-77
2023/05/31 01:46:32;;;;;;;2.80;1.20;;;18.80;79.50;;;;;;7385806;19;20147;-76
2023/05/31 01:48:59;;;;;;;1.75;1.35;;;18.70;79.80;;;;;;7388163;19;20542;-76
2023/05/31 01:51:26;;;;;;;2.75;1.50;;;18.70;80.40;;;;;;7386591;19;20134;-77
2023/05/31 01:53:52;;;;;;;2.08;1.50;;;18.60;80.40;;;;;;7389568;19;20138;-77
2023/05/31 01:56:20;;;;;;;3.65;1.20;;;18.70;79.90;;;;;;7381493;19;20127;-78
2023/05/31 01:58:49;;;;;;;3.88;1.73;;;18.70;79.90;;;;;;7389419;19;20142;-78
2023/05/31 02:01:17;;;;;;;1.40;1.10;;;18.70;80.30;;;;;;7387598;19;20139;-76
2023/05/31 02:03:43;;;;;;;2.05;1.25;;;18.60;80.40;;;;;;7389064;19;20138;-78
2023/05/31 02:06:12;;;;;;;2.63;1.25;;;18.60;80.10;;;;;;7389877;19;20135;-77
2023/05/31 02:08:39;;;;;;;2.35;1.20;;;18.50;79.80;;;;;;7388819;19;20145;-77
2023/05/31 02:11:05;;;;;;;2.58;1.40;;;18.50;81.70;;;;;;7389567;19;20127;-77
2023/05/31 02:13:31;;;;;;;3.00;1.42;;;18.40;81.50;;;;;;7387426;19;20149;-77
2023/05/31 02:15:57;;;;;;;2.67;1.55;;;18.40;81.80;;;;;;7384052;19;20752;-77
2023/05/31 02:18:26;;;;;;;2.55;1.20;;;18.40;81.90;;;;;;7388699;19;20156;-78
2023/05/31 02:20:52;;;;;;;2.67;1.17;;;18.40;82.00;;;;;;7387341;19;20150;-77
2023/05/31 02:23:19;;;;;;;2.97;1.67;;;18.40;81.90;;;;;;7388295;19;20568;-77
2023/05/31 02:25:46;;;;;;;2.03;1.00;;;18.50;81.10;;;;;;7386939;19;20135;-77
2023/05/31 02:28:12;;;;;;;1.70;1.23;;;18.50;82.20;;;;;;7388288;19;20147;-77
2023/05/31 02:30:38;;;;;;;2.58;1.13;;;18.50;81.60;;;;;;7387203;19;20590;-77
2023/05/31 02:33:04;;;;;;;3.60;1.42;;;18.60;80.10;;;;;;7385876;19;20590;-77
2023/05/31 02:35:30;;;;;;;3.35;1.08;;;18.50;80.80;;;;;;7386133;19;20134;-77
2023/05/31 02:37:56;;;;;;;2.45;1.10;;;18.40;81.00;;;;;;7378540;19;20143;-76
2023/05/31 02:40:22;;;;;;;2.20;1.23;;;18.30;82.50;;;;;;7386013;19;20162;-76
2023/05/31 02:42:48;;;;;;;2.95;1.02;;;18.30;82.60;;;;;;7384750;19;20150;-76
2023/05/31 02:45:14;;;;;;;2.58;1.25;;;18.30;82.90;;;;;;7386603;19;20138;-77
2023/05/31 02:47:39;;;;;;;3.72;1.27;;;18.30;81.70;;;;;;7386006;19;20497;-77
2023/05/31 02:50:10;;;;;;;2.10;1.35;;;18.20;82.40;;;;;;7386765;19;20151;-77
2023/05/31 02:52:37;;;;;;;2.33;1.20;;;18.00;82.00;;;;;;7384467;19;20143;-78
2023/05/31 02:55:03;;;;;;;2.75;0.90;;;17.90;83.70;;;;;;7386131;19;20138;-77
2023/05/31 02:57:29;;;;;;;2.90;1.35;;;17.80;83.00;;;;;;7387655;19;20150;-77
2023/05/31 02:59:57;;;;;;;1.60;1.30;;;18.10;83.70;;;;;;7385950;19;20126;-77
2023/05/31 03:02:24;;;;;;;6.70;1.35;;;18.10;83.00;;;;;;7385977;19;20142;-77
2023/05/31 03:04:50;;;;;;;2.75;1.50;;;18.10;83.70;;;;;;7387032;19;20139;-76
2023/05/31 03:07:16;;;;;;;3.17;1.20;;;18.10;83.50;;;;;;7388603;19;20206;-76
2023/05/31 03:09:42;;;;;;;2.92;1.50;;;17.60;83.20;;;;;;7392216;19;20188;-76
2023/05/31 03:12:08;;;;;;;2.60;1.42;;;17.70;84.70;;;;;;7392193;19;20150;-75
2023/05/31 03:14:34;;;;;;;2.28;1.60;;;17.80;85.30;;;;;;7387870;19;20161;-76
2023/05/31 03:17:00;;;;;;;1.85;1.30;;;17.90;84.20;;;;;;7394323;19;20146;-76
2023/05/31 03:19:26;;;;;;;2.15;1.30;;;17.70;84.80;;;;;;7393518;19;20590;-76
2023/05/31 03:21:52;;;;;;;1.90;1.10;;;17.90;84.50;;;;;;7392178;19;20150;-76
2023/05/31 03:24:17;;;;;;;3.85;1.20;;;17.90;84.70;;;;;;7396376;19;20222;-75
2023/05/31 03:26:43;;;;;;;2.13;1.27;;;17.90;84.60;;;;;;7394024;19;20625;-77
2023/05/31 03:29:09;;;;;;;2.00;1.25;;;18.00;84.20;;;;;;7396819;19;20153;-76
2023/05/31 03:31:35;;;;;;;4.00;1.40;;;17.60;85.20;;;;;;7397218;19;20138;-76
2023/05/31 03:34:01;;;;;;;1.85;1.20;;;17.30;85.20;;;;;;7395539;19;20142;-76
2023/05/31 03:36:27;;;;;;;2.63;1.50;;;17.50;86.10;;;;;;7397106;19;20154;-77
2023/05/31 03:38:52;;;;;;;1.48;1.15;;;17.60;85.60;;;;;;7397693;19;20138;-76
2023/05/31 03:41:18;;;;;;;2.85;1.35;;;17.60;85.60;;;;;;7395545;19;20154;-76
2023/05/31 03:43:44;;;;;;;1.30;1.13;;;17.80;85.50;;;;;;7391939;19;20151;-76
2023/05/31 03:46:10;;;;;;;3.25;1.27;;;17.90;85.60;;;;;;7397993;19;20147;-77
2023/05/31 03:48:35;;;;;;;3.83;1.73;;;17.90;85.30;;;;;;7397817;19;20171;-77
2023/05/31 03:51:01;;;;;;;2.03;1.23;;;17.80;85.90;;;;;;7398705;19;20619;-77
2023/05/31 03:53:27;;;;;;;2.65;1.15;;;17.60;84.70;;;;;;7396808;19;20161;-75
2023/05/31 03:55:52;;;;;;;3.70;1.50;;;17.60;85.90;;;;;;7393844;19;20171;-78
2023/05/31 03:58:20;;;;;;;3.70;1.30;;;17.60;85.10;;;;;;7396502;19;20533;-76
2023/05/31 04:00:46;;;;;;;5.10;1.13;;;17.30;85.80;;;;;;7394819;19;20149;-77
2023/05/31 04:03:13;;;;;;;2.17;1.40;;;16.90;87.30;;;;;;7392958;19;20145;-77
2023/05/31 04:05:39;;;;;;;2.63;1.33;;;17.10;87.60;;;;;;7391562;19;20137;-77
2023/05/31 04:08:05;;;;;;;3.70;1.60;;;17.30;87.90;;;;;;7389789;19;20143;-77
2023/05/31 04:10:31;;;;;;;2.42;1.17;;;17.30;88.00;;;;;;7390557;19;20139;-77
2023/05/31 04:12:57;;;;;;;2.20;1.30;;;17.50;88.10;;;;;;7388449;19;20139;-77
2023/05/31 04:15:23;;;;;;;2.95;1.13;;;17.10;88.40;;;;;;7386781;19;20147;-76
2023/05/31 04:17:48;;;;;;;3.10;1.38;;;17.00;89.50;;;;;;7388751;19;20142;-76
2023/05/31 04:20:16;;;;;;;3.22;1.45;;;17.30;89.80;;;;;;7389982;19;20627;-77
2023/05/31 04:22:42;;;;;;;4.05;2.20;;;17.40;89.00;;;;;;7388532;19;20607;-77
2023/05/31 04:25:09;;;;;;;2.28;1.63;;;17.50;87.00;;;;;;7392028;19;20138;-77
2023/05/31 04:27:38;;;;;;;3.30;1.50;;;17.70;87.10;;;;;;7390302;19;20138;-76
2023/05/31 04:30:05;;;;;;;4.68;1.60;;;17.70;88.20;;;;;;7390080;19;20157;-78
2023/05/31 04:32:33;;;;;;;4.15;1.70;;;17.70;86.40;;;;;;7387587;19;20154;-77
2023/05/31 04:35:03;;;;;;;2.60;1.42;;;17.80;86.50;;;;;;7388977;19;20154;-78
2023/05/31 04:37:32;;;;;;;3.13;1.40;;;17.70;86.60;;;;;;7390678;19;20131;-77
2023/05/31 04:39:59;;;;;;;4.63;1.70;;;17.70;86.80;;;;;;7388555;19;20165;-76
2023/05/31 04:42:26;;;;;;;3.58;1.35;;;17.60;87.20;;;;;;7390101;19;20150;-77
2023/05/31 04:44:58;;;;;;;2.20;1.38;;;17.60;87.70;;;;;;7387151;19;20138;-77
2023/05/31 04:47:28;;;;;;;2.92;1.60;;;17.70;87.20;;;;;;7390189;19;20147;-77
2023/05/31 04:49:57;;;;;;;1.75;1.17;;;17.70;86.90;;;;;;7387307;19;20149;-76
2023/05/31 04:52:31;;;;;;;2.00;1.20;;;17.70;87.00;;;;;;7389605;19;20602;-77
2023/05/31 04:54:58;;;;;;;3.58;1.40;;;17.80;86.30;;;;;;7388133;19;20279;-77
2023/05/31 04:57:26;;;;;;;3.30;1.42;;;17.80;86.60;;;;;;7388846;19;20230;-77
2023/05/31 04:59:53;;;;;;;1.95;1.23;;;17.70;86.70;;;;;;7388410;19;20254;-76
2023/05/31 05:02:19;;;;;;;2.65;1.48;;;17.70;87.30;;;;;;7388986;19;20143;-76
2023/05/31 05:04:45;;;;;;;3.58;1.65;;;17.80;87.10;;;;;;7390147;19;20859;-78
2023/05/31 05:07:11;;;;;;;4.38;1.50;;;17.70;86.50;;;;;;7386848;19;20154;-78
2023/05/31 05:09:40;;;;;;;1.77;1.30;;;17.80;87.40;;;;;;7387883;19;20138;-77
2023/05/31 05:12:07;;;;;;;2.67;1.42;;;17.90;86.10;;;;;;7390080;19;20612;-78
2023/05/31 05:14:33;;;;;;;2.50;1.27;;;17.90;86.20;;;;;;7386532;19;20167;-77
2023/05/31 05:16:59;;;;;;;3.65;1.63;;;17.90;86.60;;;;;;7387585;19;20874;-77
2023/05/31 05:19:24;;;;;;;6.05;1.45;;;17.90;86.30;;;;;;7386547;19;20167;-77
2023/05/31 05:21:50;;;;;;;2.45;1.58;;;17.90;86.50;;;;;;7386722;19;20519;-76
2023/05/31 05:24:16;;;;;;;4.63;1.60;;;17.90;86.70;;;;;;7386925;19;20142;-78
2023/05/31 05:26:43;;;;;;;3.40;1.50;;;17.90;86.80;;;;;;7389064;19;20225;-76
2023/05/31 05:29:09;;;;;;;4.88;1.45;;;17.80;86.90;;;;;;7386285;19;20143;-76
2023/05/31 05:31:34;;;;;;;2.65;1.35;;;17.90;86.80;;;;;;7383202;19;20129;-76
2023/05/31 05:34:00;;;;;;;3.35;1.30;;;18.00;87.30;;;;;;7386988;19;20126;-80
2023/05/31 05:36:26;;;;;;;4.65;1.50;;;17.90;87.30;;;;;;7385229;19;20135;-81
2023/05/31 05:38:52;;;;;;;4.55;1.80;;;18.00;87.30;;;;;;7387051;19;20197;-79
2023/05/31 05:41:18;;;;;;;6.80;1.90;;;18.00;87.50;;;;;;7387175;19;20150;-79
2023/05/31 05:43:43;;;;;;;2.20;1.30;;;18.00;87.00;;;;;;7381661;19;20151;-77
2023/05/31 05:46:09;;;;;;;2.25;1.40;;;18.10;87.00;;;;;;7388967;19;20142;-78
2023/05/31 05:48:35;;;;;;;3.40;1.45;;;18.10;86.00;;;;;;7387931;19;20131;-79
2023/05/31 05:51:01;;;;;;;6.07;2.22;;;18.20;85.60;;;;;;7387368;19;20138;-79
2023/05/31 05:53:26;;;;;;;3.97;2.30;;;18.20;86.00;;;;;;7384562;19;20410;-80
2023/05/31 05:55:53;;;;;;;2.78;1.65;;;18.20;86.40;;;;;;7385371;19;20173;-80
2023/05/31 05:58:19;;;;;;;2.15;1.30;;;18.20;85.30;;;;;;7383515;19;20138;-80
2023/05/31 06:00:48;;;;;;;3.15;1.40;;;18.20;85.50;;;;;;7389567;19;20135;-83
2023/05/31 06:03:14;;;;;;;2.15;1.27;;;18.20;85.70;;;;;;7387018;19;20260;-82
2023/05/31 06:05:44;;;;;;;4.70;1.45;;;18.20;85.90;;;;;;7388120;19;20134;-82
2023/05/31 06:08:11;;;;;;;3.03;1.63;;;18.40;85.60;;;;;;7387177;19;20138;-82
2023/05/31 06:10:37;;;;;;;2.28;1.30;;;18.40;85.50;;;;;;7387727;19;20598;-81
2023/05/31 06:13:04;;;;;;;3.63;1.45;;;18.60;85.10;;;;;;7385822;19;20184;-82
2023/05/31 06:15:30;;;;;;;4.40;1.90;;;19.30;83.60;;;;;;7386797;19;20134;-81
2023/05/31 06:17:56;;;;;;;2.83;1.40;;;21.20;80.70;;;;;;7386649;19;20153;-83
2023/05/31 06:20:22;;;;;;;3.00;1.40;;;23.00;76.30;;;;;;7386803;19;20341;-81
2023/05/31 06:22:49;;;;;;;3.38;1.70;;;24.10;74.10;;;;;;7387267;19;20153;-81
2023/05/31 06:25:17;;;;;;;3.15;1.17;;;25.40;71.20;;;;;;7389216;19;20142;-82
2023/05/31 06:27:45;;;;;;;6.80;3.13;;;26.30;68.40;;;;;;7386323;19;20168;-80
2023/05/31 06:30:15;;;;;;;4.38;3.25;;;26.80;67.40;;;;;;7389338;19;20127;-82
2023/05/31 06:32:41;;;;;;;3.80;1.50;;;27.70;65.30;;;;;;7384767;19;20166;-79
2023/05/31 06:35:07;;;;;;;3.20;1.35;;;28.10;64.10;;;;;;7384276;19;20142;-78
2023/05/31 06:37:33;;;;;;;3.55;1.60;;;27.60;63.70;;;;;;7383694;19;20914;-79
2023/05/31 06:39:59;;;;;;;2.80;1.50;;;27.70;63.90;;;;;;7384290;19;20147;-76
2023/05/31 06:42:25;;;;;;;1.98;1.20;;;27.90;63.40;;;;;;7389998;19;20146;-77
2023/05/31 06:44:51;;;;;;;1.67;1.30;;;28.00;62.80;;;;;;7398735;19;20629;-78
2023/05/31 06:47:17;;;;;;;4.85;1.60;;;28.20;62.40;;;;;;7401196;19;20152;-76
2023/05/31 06:49:44;;;;;;;2.85;1.38;;;28.50;61.30;;;;;;7397967;19;20493;-79
2023/05/31 06:52:12;;;;;;;2.58;1.60;;;28.00;62.50;;;;;;7398904;19;20175;-78
2023/05/31 06:54:37;;;;;;;3.40;1.70;;;27.90;62.10;;;;;;7397434;19;20146;-77
2023/05/31 06:57:04;;;;;;;3.15;1.63;;;28.00;62.00;;;;;;7399342;19;20139;-78
2023/05/31 06:59:30;;;;;;;2.70;1.42;;;27.80;61.80;;;;;;7399207;19;20126;-80
2023/05/31 07:01:56;;;;;;;2.88;1.48;;;27.40;63.10;;;;;;7400080;19;20170;-79
2023/05/31 07:04:22;;;;;;;2.90;1.77;;;27.10;62.80;;;;;;7397594;19;20169;-79
2023/05/31 07:06:48;;;;;;;3.13;1.20;;;26.90;63.30;;;;;;7397226;19;20491;-79
2023/05/31 07:09:14;;;;;;;2.95;1.30;;;26.50;64.10;;;;;;7401416;19;20190;-78
2023/05/31 07:11:40;;;;;;;3.63;1.45;;;26.40;63.80;;;;;;7398060;19;20512;-80
2023/05/31 07:14:06;;;;;;;3.72;1.60;;;26.40;64.10;;;;;;7399958;19;20148;-79
2023/05/31 07:16:31;;;;;;;3.08;1.55;;;26.10;64.40;;;;;;7398184;19;20142;-80
2023/05/31 07:18:57;;;;;;;3.10;1.13;;;26.10;64.60;;;;;;7399371;19;20139;-79
2023/05/31 07:21:23;;;;;;;4.68;1.45;;;26.30;64.80;;;;;;7395787;19;20146;-79
2023/05/31 07:23:49;;;;;;;4.00;1.88;;;26.20;64.60;;;;;;7399668;19;20150;-76
2023/05/31 07:26:15;;;;;;;3.20;1.83;;;26.10;65.40;;;;;;7397753;19;20570;-78
2023/05/31 07:28:45;;;;;;;3.83;1.63;;;25.60;65.50;;;;;;7397005;19;20151;-78
2023/05/31 07:31:12;;;;;;;3.78;1.80;;;25.70;66.10;;;;;;7396481;19;20134;-78
2023/05/31 07:33:38;;;;;;;3.83;1.73;;;26.10;65.90;;;;;;7396335;19;20126;-80
2023/05/31 07:36:04;;;;;;;4.88;1.63;;;26.20;65.00;;;;;;7395652;19;20607;-79
2023/05/31 07:38:30;;;;;;;4.15;1.48;;;26.00;65.40;;;;;;7398190;19;20126;-78
2023/05/31 07:40:56;;;;;;;3.45;1.95;;;25.60;66.10;;;;;;7398176;19;20138;-75
2023/05/31 07:43:23;;;;;;;3.13;1.88;;;25.90;65.60;;;;;;7394074;19;20153;-76
2023/05/31 07:45:56;;;;;;;3.10;1.67;;;26.00;65.10;;;;;;7398471;19;20135;-78
2023/05/31 07:48:22;;;;;;;6.70;3.05;;;26.00;65.10;;;;;;7399221;19;20163;-77
2023/05/31 07:50:49;;;;;;;2.40;1.60;;;25.90;65.00;;;;;;7400413;19;20605;-75
2023/05/31 07:53:15;;;;;;;3.40;1.63;;;25.70;65.90;;;;;;7394698;19;20975;-78
2023/05/31 07:55:41;;;;;;;3.65;2.00;;;26.10;65.30;;;;;;7388161;19;20147;-76
2023/05/31 07:58:06;;;;;;;4.50;1.50;;;26.30;64.90;;;;;;7390491;19;20597;-78
2023/05/31 08:00:32;;;;;;;4.45;1.75;;;26.00;65.60;;;;;;7389317;19;20134;-81
2023/05/31 08:02:58;;;;;;;4.68;1.98;;;25.90;65.50;;;;;;7381347;19;20126;-80
2023/05/31 08:05:24;;;;;;;5.68;1.80;;;25.80;65.80;;;;;;7388482;19;20126;-79
2023/05/31 08:07:51;;;;;;;4.45;1.65;;;25.60;65.60;;;;;;7393430;19;20486;-80
2023/05/31 08:10:17;;;;;;;2.80;1.60;;;25.40;66.50;;;;;;7394772;19;20209;-80
2023/05/31 08:12:43;;;;;;;4.75;2.00;;;25.40;66.20;;;;;;7390588;19;20474;-82
2023/05/31 08:15:11;;;;;;;3.03;1.90;;;25.80;66.30;;;;;;7391040;19;20226;-80
2023/05/31 08:17:46;;;;;;;3.30;1.50;;;26.00;65.10;;;;;;7394120;19;20221;-81
2023/05/31 08:20:13;;;;;;;8.63;1.85;;;25.70;65.40;;;;;;7392469;19;20495;-82
2023/05/31 08:22:42;;;;;;;3.72;1.80;;;25.90;66.10;;;;;;7394538;19;20151;-81
2023/05/31 08:25:08;;;;;;;2.53;1.70;;;26.20;65.80;;;;;;7392468;19;20154;-81
2023/05/31 08:27:34;;;;;;;3.80;1.88;;;26.20;65.10;;;;;;7393242;19;20153;-82
2023/05/31 08:30:00;;;;;;;5.25;1.88;;;26.20;65.20;;;;;;7392961;19;20154;-81
2023/05/31 08:32:25;;;;;;;3.72;1.90;;;26.40;65.10;;;;;;7389179;19;20613;-81
2023/05/31 08:34:51;;;;;;;5.53;1.70;;;26.10;65.60;;;;;;7388371;19;20139;-78
2023/05/31 08:37:17;;;;;;;6.47;1.77;;;26.10;65.80;;;;;;7390817;19;20127;-80
2023/05/31 08:39:43;;;;;;;4.20;1.70;;;25.80;66.60;;;;;;7391286;19;20135;-81
2023/05/31 08:42:17;;;;;;;2.33;1.65;;;25.80;66.30;;;;;;7387534;19;20146;-78
2023/05/31 08:44:43;;;;;;;3.13;1.40;;;25.70;66.50;;;;;;7388816;19;20235;-79
2023/05/31 08:47:25;;;;;;;10.93;2.53;;;25.70;66.70;;;;;;7392899;19;20186;-81
2023/05/31 08:49:54;;;;;;;2.22;1.77;;;25.90;66.70;;;;;;7388163;19;20202;-80
2023/05/31 08:52:21;;;;;;;3.65;1.50;;;25.90;66.50;;;;;;7388371;19;20131;-81
2023/05/31 08:54:49;;;;;;;19.85;2.97;;;25.70;66.90;;;;;;7388252;19;20153;-80
2023/05/31 08:57:18;;;;;;;3.28;1.67;;;25.40;67.40;;;;;;7388954;19;20155;-81
2023/05/31 08:59:44;;;;;;;3.75;1.60;;;25.30;67.50;;;;;;7390425;19;20150;-78
2023/05/31 09:02:12;;;;;;;2.03;1.30;;;25.30;67.90;;;;;;7386162;19;20190;-78
2023/05/31 09:04:39;;;;;;;3.95;2.00;;;25.80;67.90;;;;;;7386202;19;20182;-79
2023/05/31 09:07:05;;;;;;;3.13;1.80;;;25.70;67.10;;;;;;7387710;19;20143;-78
2023/05/31 09:09:31;;;;;;;2.85;1.98;;;25.80;67.30;;;;;;7388308;19;20164;-79
2023/05/31 09:12:58;;;;;;;;;;;;;;;;;;;;;
2023/05/31 09:15:36;;;;;;;3.60;1.60;;;25.50;67.20;;;;;;7387259;19;20161;-79
2023/05/31 09:18:20;;;;;;;2.88;1.63;;;25.20;67.80;;;;;;7389015;19;20153;-79
2023/05/31 09:20:52;;;;;;;4.47;1.60;;;25.00;67.80;;;;;;7390085;19;20123;-79
2023/05/31 09:23:18;;;;;;;3.88;1.80;;;25.00;68.00;;;;;;7386734;19;20157;-78
2023/05/31 09:25:49;;;;;;;2.03;1.60;;;25.20;68.10;;;;;;7387638;19;20131;-80
2023/05/31 09:28:17;;;;;;;3.67;1.83;;;25.20;67.90;;;;;;7380634;19;20146;-77
2023/05/31 09:30:43;;;;;;;3.83;1.88;;;25.20;67.80;;;;;;7390968;19;20748;-77
2023/05/31 09:33:10;;;;;;;3.20;1.63;;;25.20;68.20;;;;;;7379914;19;20217;-77
2023/05/31 09:35:36;;;;;;;5.28;1.83;;;25.20;67.40;;;;;;7386099;19;20150;-79
2023/05/31 09:38:06;;;;;;;3.15;1.67;;;25.00;66.70;;;;;;7389256;19;20134;-77
2023/05/31 09:40:33;;;;;;;5.78;2.03;;;24.80;66.10;;;;;;7395434;19;20162;-79
2023/05/31 09:42:59;;;;;;;1.85;1.67;;;24.60;66.90;;;;;;7390754;19;20189;-85
2023/05/31 09:45:29;;;;;;;4.80;2.03;;;24.70;66.70;;;;;;7390179;19;20130;-82
2023/05/31 09:47:55;;;;;;;3.35;1.63;;;24.60;66.10;;;;;;7388202;19;20146;-80
2023/05/31 09:50:23;;;;;;;3.08;1.40;;;24.60;66.60;;;;;;7387878;19;20465;-80
2023/05/31 09:52:57;;;;;;;5.85;1.73;;;24.80;66.60;;;;;;7384380;19;20150;-79
2023/05/31 09:55:40;;;;;;;3.20;2.03;;;24.90;66.20;;;;;;7386749;19;20225;-79
2023/05/31 09:58:08;;;;;;;2.15;1.55;;;25.20;65.50;;;;;;7385416;19;20154;-80
2023/05/31 10:00:34;;;;;;;2.90;1.90;;;25.10;65.80;;;;;;7387582;19;20139;-81
2023/05/31 10:03:01;;;;;;;3.85;2.00;;;25.20;66.20;;;;;;7387879;19;20182;-77
2023/05/31 10:05:27;;;;;;;3.20;1.83;;;25.30;65.60;;;;;;7380976;19;20164;-76
2023/05/31 10:07:53;;;;;;;2.38;1.70;;;25.40;65.00;;;;;;7386182;19;20142;-77
2023/05/31 10:10:20;;;;;;;3.88;1.38;;;25.30;65.90;;;;;;7381101;19;20185;-76
2023/05/31 10:12:51;;;;;;;2.45;1.48;;;25.30;65.30;;;;;;7384812;19;20590;-76
2023/05/31 10:15:22;;;;;;;4.10;1.70;;;25.30;65.10;;;;;;7385991;19;20138;-79
2023/05/31 10:18:13;;;;;;;2.95;1.50;;;25.20;65.20;;;;;;7389814;19;20601;-78
2023/05/31 10:20:45;;;;;;;2.60;1.73;;;25.10;64.40;;;;;;7387874;19;20190;-79
2023/05/31 10:23:24;;;;;;;4.32;1.92;;;25.10;65.10;;;;;;7386973;19;20165;-79
2023/05/31 10:26:04;;;;;;;3.15;1.38;;;25.40;64.10;;;;;;7389615;19;20594;-79
2023/05/31 10:28:40;;;;;;;2.40;1.50;;;25.50;64.00;;;;;;7392123;19;20141;-79
2023/05/31 10:31:10;;;;;;;2.30;1.35;;;25.40;64.20;;;;;;7389047;19;20138;-78
2023/05/31 10:33:39;;;;;;;2.30;1.60;;;25.60;64.20;;;;;;7391408;19;20456;-78
2023/05/31 10:36:05;;;;;;;3.63;1.50;;;25.50;63.30;;;;;;7388781;19;20131;-79
2023/05/31 10:38:40;;;;;;;7.22;5.13;;;25.40;62.90;;;;;;7386006;19;20147;-83
2023/05/31 10:41:11;;;;;;;4.32;3.22;;;25.50;63.10;;;;;;7399793;19;20475;-85
2023/05/31 10:43:42;;;;;;;3.58;1.88;;;25.70;62.90;;;;;;7393174;19;20160;-81
2023/05/31 10:46:20;;;;;;;2.10;1.55;;;25.60;62.70;;;;;;7395508;19;20134;-80
2023/05/31 10:48:55;;;;;;;3.50;1.50;;;25.70;62.00;;;;;;7399350;19;20933;-76
2023/05/31 10:51:46;;;;;;;3.05;1.80;;;25.50;61.80;;;;;;7393065;19;20395;-77
2023/05/31 10:54:27;;;;;;;1.75;1.30;;;25.30;64.10;;;;;;7396710;19;20210;-80
2023/05/31 10:56:57;;;;;;;2.83;1.60;;;25.20;61.90;;;;;;7394674;19;20158;-79
2023/05/31 10:59:25;;;;;;;2.85;1.50;;;25.10;61.50;;;;;;7403031;19;20156;-79
2023/05/31 11:01:51;;;;;;;5.35;3.28;;;25.00;61.50;;;;;;7399896;19;20134;-76
2023/05/31 11:04:22;;;;;;;2.97;1.80;;;25.00;61.80;;;;;;7388573;19;20595;-80
2023/05/31 11:06:53;;;;;;;2.42;1.67;;;25.00;61.80;;;;;;7386664;19;20159;-78
2023/05/31 11:09:20;;;;;;;2.67;1.55;;;25.20;61.60;;;;;;7387799;19;20142;-80
2023/05/31 11:11:48;;;;;;;3.67;2.33;;;25.30;62.10;;;;;;7386224;19;20154;-77
2023/05/31 11:14:30;;;;;;;4.63;1.70;;;25.40;61.90;;;;;;7391912;19;20211;-78
2023/05/31 11:17:03;;;;;;;1.80;1.23;;;25.50;61.70;;;;;;7380759;19;20138;-81
2023/05/31 11:19:31;;;;;;;2.10;1.35;;;25.40;61.70;;;;;;7382830;19;20154;-81
2023/05/31 11:22:10;;;;;;;3.38;1.50;;;25.50;61.20;;;;;;7386190;19;20241;-81
2023/05/31 11:24:48;;;;;;;4.18;1.42;;;25.40;61.40;;;;;;7382990;19;20134;-80
2023/05/31 11:27:14;;;;;;;3.83;1.48;;;25.50;62.10;;;;;;7384010;19;20545;-79
2023/05/31 11:29:56;;;;;;;4.85;1.45;;;25.50;62.10;;;;;;7391417;19;20138;-79
2023/05/31 11:32:43;;;;;;;2.90;1.85;;;25.40;62.80;;;;;;7386853;19;20384;-79
2023/05/31 11:35:14;;;;;;;2.58;1.65;;;25.60;62.50;;;;;;7386682;19;20153;-78
2023/05/31 11:37:41;;;;;;;1.77;1.25;;;25.80;61.20;;;;;;7390417;19;20159;-75
2023/05/31 11:40:12;;;;;;;2.33;1.48;;;25.80;61.00;;;;;;7393392;19;20138;-77
2023/05/31 11:42:42;;;;;;;3.70;1.80;;;25.70;60.10;;;;;;7390835;19;20236;-76
2023/05/31 11:45:09;;;;;;;3.08;1.50;;;25.90;61.50;;;;;;7391208;19;20148;-75
2023/05/31 11:47:38;;;;;;;2.33;1.73;;;25.90;61.00;;;;;;7387608;19;20168;-75
2023/05/31 11:50:04;;;;;;;4.38;1.60;;;26.00;61.20;;;;;;7390706;19;20165;-76
2023/05/31 11:52:30;;;;;;;4.07;2.10;;;25.90;61.80;;;;;;7388992;19;20138;-76
2023/05/31 11:55:04;;;;;;;3.10;1.88;;;25.80;61.60;;;;;;7390219;19;20170;-75
2023/05/31 11:57:39;;;;;;;3.65;1.80;;;26.00;61.00;;;;;;7390070;19;20158;-78
2023/05/31 12:00:10;;;;;;;5.95;1.83;;;26.10;60.20;;;;;;7390319;19;20147;-78
2023/05/31 12:02:42;;;;;;;5.50;2.28;;;26.00;60.40;;;;;;7388932;19;20513;-76
2023/05/31 12:05:12;;;;;;;2.95;1.70;;;26.00;60.30;;;;;;7392655;19;20177;-77
2023/05/31 12:07:38;;;;;;;4.07;1.73;;;25.90;60.70;;;;;;7390109;19;20176;-78
2023/05/31 12:10:08;;;;;;;3.80;1.73;;;25.90;60.10;;;;;;7392281;19;20151;-78
2023/05/31 12:12:35;;;;;;;5.65;1.45;;;26.00;60.70;;;;;;7387714;19;20217;-76
2023/05/31 12:15:08;;;;;;;2.53;1.38;;;26.00;60.00;;;;;;7389948;19;20579;-76
2023/05/31 12:17:34;;;;;;;2.38;1.60;;;25.90;60.00;;;;;;7391290;19;20146;-75
2023/05/31 12:20:00;;;;;;;2.60;1.60;;;26.00;61.30;;;;;;7389690;19;20135;-77
2023/05/31 12:22:29;;;;;;;2.65;1.52;;;25.90;59.80;;;;;;7390026;19;20135;-77
2023/05/31 12:24:55;;;;;;;5.10;1.65;;;26.00;59.70;;;;;;7390351;19;20134;-80
2023/05/31 12:27:24;;;;;;;2.65;1.63;;;26.00;59.40;;;;;;7389615;19;20135;-79
2023/05/31 12:29:54;;;;;;;3.00;1.40;;;26.10;59.70;;;;;;7391047;19;20222;-78
2023/05/31 12:32:21;;;;;;;4.05;1.40;;;26.00;59.60;;;;;;7387612;19;20544;-80
2023/05/31 12:34:50;;;;;;;3.00;1.67;;;25.90;59.80;;;;;;7390941;19;20159;-76
2023/05/31 12:37:15;;;;;;;3.88;2.20;;;25.90;59.20;;;;;;7389428;19;20135;-78
2023/05/31 12:39:45;;;;;;;2.17;1.50;;;25.90;60.20;;;;;;7387612;19;20142;-76
2023/05/31 12:42:11;;;;;;;2.90;1.60;;;26.00;58.80;;;;;;7387089;19;20635;-75
2023/05/31 12:44:38;;;;;;;3.22;1.73;;;26.10;59.50;;;;;;7386331;19;20134;-75
2023/05/31 12:47:07;;;;;;;2.70;1.50;;;26.10;62.60;;;;;;7391541;19;20157;-76
2023/05/31 12:49:35;;;;;;;2.35;1.50;;;26.10;60.20;;;;;;7386838;19;20147;-75
2023/05/31 12:52:14;;;;;;;1.60;1.05;;;26.30;57.50;;;;;;7388513;19;20157;-76
2023/05/31 12:54:43;;;;;;;2.72;1.52;;;26.30;56.20;;;;;;7391252;19;20145;-74